createdAt,value
2019-02-21T00:01:12.303Z,6.20
2019-02-21T00:03:42.725Z,6.10
2019-02-21T00:06:13.192Z,6.20
2019-02-21T00:08:43.646Z,6.20
2019-02-21T00:11:14.127Z,6.00
2019-02-21T00:13:44.648Z,6.00
2019-02-21T00:16:15.085Z,5.90
2019-02-21T00:18:45.536Z,6.00
2019-02-21T00:21:15.980Z,6.00
2019-02-21T00:23:46.361Z,6.00
2019-02-21T00:26:16.873Z,6.10
2019-02-21T00:28:47.231Z,6.10
2019-02-21T00:31:17.625Z,5.90
2019-02-21T00:33:48.028Z,5.80
2019-02-21T00:36:18.424Z,5.90
2019-02-21T00:38:48.827Z,5.90
2019-02-21T00:41:19.224Z,6.00
2019-02-21T00:43:49.585Z,5.80
2019-02-21T00:46:19.980Z,5.80
2019-02-21T00:48:50.337Z,5.70
2019-02-21T00:51:20.744Z,5.80
2019-02-21T00:53:51.122Z,5.80
2019-02-21T00:56:21.516Z,5.80
2019-02-21T00:58:51.917Z,5.80
2019-02-21T01:01:22.332Z,5.70
2019-02-21T01:03:52.713Z,5.50
2019-02-21T01:06:23.094Z,5.60
2019-02-21T01:08:53.461Z,5.70
2019-02-21T01:11:23.866Z,5.60
2019-02-21T01:13:54.415Z,5.60
2019-02-21T01:16:24.821Z,5.50
2019-02-21T01:18:55.213Z,5.40
2019-02-21T01:21:25.615Z,5.40
2019-02-21T01:23:56.003Z,5.50
2019-02-21T01:26:26.390Z,5.50
2019-02-21T01:28:56.753Z,5.40
2019-02-21T01:31:27.097Z,5.40
2019-02-21T01:33:57.533Z,5.40
2019-02-21T01:36:27.975Z,5.40
2019-02-21T01:38:58.375Z,5.40
2019-02-21T01:41:28.756Z,5.40
2019-02-21T01:43:59.127Z,5.30
2019-02-21T01:46:29.493Z,5.30
2019-02-21T01:48:59.921Z,5.30
2019-02-21T01:51:30.307Z,5.20
2019-02-21T01:54:00.761Z,5.30
2019-02-21T01:56:31.129Z,5.30
2019-02-21T01:59:01.512Z,5.40
2019-02-21T02:01:31.886Z,5.40
2019-02-21T02:04:02.306Z,5.20
2019-02-21T02:06:32.678Z,5.20
2019-02-21T02:09:03.077Z,5.20
2019-02-21T02:11:33.649Z,5.00
2019-02-21T02:14:04.018Z,5.00
2019-02-21T02:16:34.434Z,5.00
2019-02-21T02:19:04.798Z,5.00
2019-02-21T02:21:35.191Z,5.00
2019-02-21T02:24:05.575Z,5.00
2019-02-21T02:26:36.052Z,5.00
2019-02-21T02:29:06.475Z,5.10
2019-02-21T02:31:36.854Z,5.00
2019-02-21T02:34:07.225Z,4.90
2019-02-21T02:36:38.708Z,4.90
2019-02-21T02:39:09.393Z,5.00
2019-02-21T02:41:39.760Z,5.00
2019-02-21T02:44:10.205Z,4.90
2019-02-21T02:46:40.616Z,5.00
2019-02-21T02:49:10.985Z,5.00
2019-02-21T02:51:41.427Z,5.00
2019-02-21T02:54:11.852Z,5.00
2019-02-21T02:56:42.426Z,5.10
2019-02-21T02:59:12.798Z,4.90
2019-02-21T03:01:43.219Z,4.80
2019-02-21T03:04:13.619Z,4.70
2019-02-21T03:06:44.050Z,4.80
2019-02-21T03:09:14.431Z,4.90
2019-02-21T03:11:44.820Z,4.90
2019-02-21T03:14:15.199Z,4.80
2019-02-21T03:16:45.595Z,4.90
2019-02-21T03:19:15.984Z,4.80
2019-02-21T03:21:46.369Z,4.60
2019-02-21T03:24:16.782Z,4.60
2019-02-21T03:26:47.174Z,4.60
2019-02-21T03:29:17.535Z,4.50
2019-02-21T03:31:54.338Z,4.60
2019-02-21T03:34:20.097Z,4.70
2019-02-21T03:36:50.677Z,4.60
2019-02-21T03:39:21.054Z,4.60
2019-02-21T03:41:51.450Z,4.70
2019-02-21T03:44:21.874Z,4.60
2019-02-21T03:46:52.262Z,4.70
2019-02-21T03:49:22.624Z,4.60
2019-02-21T03:51:53.011Z,4.60
2019-02-21T03:54:23.390Z,4.60
2019-02-21T03:56:53.770Z,4.50
2019-02-21T03:59:24.218Z,4.60
2019-02-21T04:02:04.903Z,4.60
2019-02-21T04:04:26.818Z,4.70
2019-02-21T04:06:57.215Z,4.60
2019-02-21T04:09:27.621Z,4.40
2019-02-21T04:11:58.020Z,4.50
2019-02-21T04:14:28.499Z,4.50
2019-02-21T04:16:58.904Z,4.40
2019-02-21T04:19:29.284Z,4.30
2019-02-21T04:21:59.692Z,4.40
2019-02-21T04:24:30.080Z,4.40
2019-02-21T04:27:00.514Z,4.50
2019-02-21T04:29:33.428Z,4.50
2019-02-21T04:32:03.785Z,4.50
2019-02-21T04:34:34.182Z,4.60
2019-02-21T04:37:04.575Z,4.60
2019-02-21T04:39:34.989Z,4.60
2019-02-21T04:42:05.378Z,4.50
2019-02-21T04:44:37.841Z,4.50
2019-02-21T04:47:08.222Z,4.40
2019-02-21T04:49:38.619Z,4.50
2019-02-21T04:52:09.017Z,4.60
2019-02-21T04:54:39.469Z,4.40
2019-02-21T04:57:09.851Z,4.30
2019-02-21T04:59:40.237Z,4.30
2019-02-21T05:02:10.611Z,4.30
2019-02-21T05:04:40.995Z,4.30
2019-02-21T05:07:11.533Z,4.40
2019-02-21T05:09:42.010Z,4.40
2019-02-21T05:12:12.395Z,4.40
2019-02-21T05:14:42.839Z,4.40
2019-02-21T05:17:13.250Z,4.50
2019-02-21T05:19:44.723Z,4.50
2019-02-21T05:22:15.132Z,4.40
2019-02-21T05:24:45.523Z,4.30
2019-02-21T05:27:19.934Z,4.40
2019-02-21T05:29:50.350Z,4.30
2019-02-21T05:32:42.643Z,4.20
2019-02-21T05:35:31.088Z,4.30
2019-02-21T05:38:22.831Z,4.30
2019-02-21T05:41:04.483Z,4.40
2019-02-21T05:43:53.965Z,4.40
2019-02-21T05:46:41.913Z,4.40
2019-02-21T05:49:34.613Z,4.40
2019-02-21T05:52:23.169Z,4.40
2019-02-21T05:55:00.805Z,4.40
2019-02-21T05:57:46.578Z,4.40
2019-02-21T06:00:28.671Z,4.30
2019-02-21T06:03:21.335Z,4.40
2019-02-21T06:05:59.197Z,4.30
2019-02-21T06:08:48.830Z,4.20
2019-02-21T06:11:41.303Z,4.30
2019-02-21T06:14:29.550Z,4.30
2019-02-21T06:17:11.862Z,4.30
2019-02-21T06:20:00.380Z,4.10
2019-02-21T06:23:07.844Z,3.90
2019-02-21T06:26:03.349Z,4.10
2019-02-21T06:29:01.675Z,4.10
2019-02-21T06:31:32.073Z,4.10
2019-02-21T06:34:02.459Z,4.10
2019-02-21T06:36:32.896Z,4.00
2019-02-21T06:39:04.407Z,3.90
2019-02-21T06:41:34.810Z,3.90
2019-02-21T06:44:05.280Z,4.00
2019-02-21T06:46:35.696Z,4.00
2019-02-21T06:49:06.096Z,4.10
2019-02-21T06:51:36.498Z,4.20
2019-02-21T06:54:06.946Z,4.30
2019-02-21T06:56:39.820Z,4.30
2019-02-21T06:59:09.563Z,4.30
2019-02-21T07:01:39.943Z,4.40
2019-02-21T07:04:10.428Z,4.50
2019-02-21T07:06:40.853Z,4.50
2019-02-21T07:09:11.249Z,4.40
2019-02-21T07:11:41.629Z,4.40
2019-02-21T07:14:12.030Z,4.50
2019-02-21T07:16:42.415Z,4.50
2019-02-21T07:19:12.814Z,4.50
2019-02-21T07:21:43.188Z,4.60
2019-02-21T07:24:13.606Z,4.70
2019-02-21T07:26:43.976Z,4.90
2019-02-21T07:29:14.451Z,5.10
2019-02-21T07:31:44.926Z,5.20
2019-02-21T07:34:15.327Z,5.40
2019-02-21T07:36:45.764Z,5.50
2019-02-21T07:39:19.783Z,5.60
2019-02-21T07:41:51.026Z,5.60
2019-02-21T07:44:21.426Z,5.80
2019-02-21T07:46:53.386Z,5.80
2019-02-21T07:49:25.666Z,5.90
2019-02-21T07:51:56.306Z,6.00
2019-02-21T07:54:26.718Z,6.00
2019-02-21T07:56:57.141Z,6.10
2019-02-21T07:59:27.563Z,6.10
2019-02-21T08:01:57.965Z,6.20
2019-02-21T08:04:28.414Z,6.30
2019-02-21T08:06:58.840Z,6.30
2019-02-21T08:09:29.265Z,6.40
2019-02-21T08:11:59.730Z,6.40
2019-02-21T08:14:30.116Z,6.40
2019-02-21T08:17:00.589Z,6.40
2019-02-21T08:19:30.968Z,6.60
2019-02-21T08:22:01.434Z,6.80
2019-02-21T08:24:31.813Z,7.10
2019-02-21T08:27:02.199Z,7.40
2019-02-21T08:29:32.573Z,7.60
2019-02-21T08:32:02.978Z,7.90
2019-02-21T08:34:37.963Z,8.10
2019-02-21T08:37:08.871Z,8.30
2019-02-21T08:39:39.478Z,8.40
2019-02-21T08:42:09.934Z,8.40
2019-02-21T08:44:40.390Z,8.50
2019-02-21T08:47:10.807Z,8.80
2019-02-21T08:49:41.150Z,8.90
2019-02-21T08:52:11.576Z,9.00
2019-02-21T08:54:42.043Z,9.00
2019-02-21T08:57:12.432Z,9.00
2019-02-21T08:59:42.784Z,9.10
2019-02-21T09:02:13.208Z,9.30
2019-02-21T09:04:43.644Z,9.50
2019-02-21T09:07:14.102Z,9.70
2019-02-21T09:09:44.503Z,10.10
2019-02-21T09:12:14.905Z,10.30
2019-02-21T09:14:45.359Z,10.50
2019-02-21T09:17:15.889Z,10.60
2019-02-21T09:19:46.356Z,10.80
2019-02-21T09:22:16.855Z,11.10
2019-02-21T09:24:47.302Z,11.20
2019-02-21T09:27:17.723Z,11.20
2019-02-21T09:29:48.139Z,11.30
2019-02-21T09:32:18.502Z,11.50
2019-02-21T09:34:50.358Z,11.60
2019-02-21T09:37:20.934Z,11.80
2019-02-21T09:39:51.330Z,11.90
2019-02-21T09:42:21.711Z,12.10
2019-02-21T09:44:52.114Z,12.30
2019-02-21T09:47:22.484Z,12.50
2019-02-21T09:49:52.906Z,12.70
2019-02-21T09:52:23.393Z,12.80
2019-02-21T09:54:53.814Z,12.90
2019-02-21T09:57:24.211Z,13.00
2019-02-21T09:59:54.609Z,13.10
2019-02-21T10:02:24.986Z,13.20
2019-02-21T10:05:04.474Z,13.40
2019-02-21T10:07:27.476Z,13.50
2019-02-21T10:09:57.997Z,13.50
2019-02-21T10:12:28.395Z,13.50
2019-02-21T10:14:58.803Z,13.30
2019-02-21T10:17:29.199Z,13.30
2019-02-21T10:19:59.640Z,13.40
2019-02-21T10:22:30.022Z,13.50
2019-02-21T10:25:00.390Z,13.60
2019-02-21T10:27:30.796Z,13.60
2019-02-21T10:30:01.179Z,13.60
2019-02-21T10:32:31.604Z,13.60
2019-02-21T10:35:02.076Z,13.60
2019-02-21T10:37:32.522Z,13.50
2019-02-21T10:40:02.919Z,13.70
2019-02-21T10:42:33.356Z,13.90
2019-02-21T10:45:04.563Z,13.90
2019-02-21T10:47:35.919Z,14.20
2019-02-21T10:50:07.343Z,14.80
2019-02-21T10:52:37.758Z,15.30
2019-02-21T10:55:08.378Z,16.00
2019-02-21T10:57:38.766Z,16.60
2019-02-21T11:00:15.756Z,17.40
2019-02-21T11:02:46.210Z,17.90
2019-02-21T11:05:16.595Z,18.10
2019-02-21T11:07:46.994Z,19.00
2019-02-21T11:10:19.452Z,20.00
2019-02-21T11:12:50.041Z,20.30
2019-02-21T11:15:20.989Z,20.30
2019-02-21T11:17:51.379Z,20.40
2019-02-21T11:20:21.818Z,21.00
2019-02-21T11:22:52.202Z,21.00
2019-02-21T11:25:22.591Z,20.90
2019-02-21T11:27:54.161Z,20.70
2019-02-21T11:30:24.647Z,20.50
2019-02-21T11:32:55.101Z,20.40
2019-02-21T11:35:25.508Z,20.00
2019-02-21T11:37:55.935Z,19.70
2019-02-21T11:40:26.288Z,19.70
2019-02-21T11:42:56.685Z,19.40
2019-02-21T11:45:27.074Z,19.20
2019-02-21T11:47:57.484Z,19.20
2019-02-21T11:50:27.833Z,19.20
2019-02-21T11:52:58.291Z,19.30
2019-02-21T11:55:28.768Z,19.40
2019-02-21T11:57:59.150Z,19.50
2019-02-21T12:00:29.701Z,19.70
2019-02-21T12:03:00.104Z,19.60
2019-02-21T12:05:31.840Z,20.00
2019-02-21T12:08:02.725Z,20.20
2019-02-21T12:10:33.198Z,20.50
2019-02-21T12:13:03.632Z,20.90
2019-02-21T12:15:34.095Z,20.90
2019-02-21T12:18:04.538Z,20.70
2019-02-21T12:20:34.963Z,20.70
2019-02-21T12:23:05.337Z,20.60
2019-02-21T12:25:35.789Z,20.10
2019-02-21T12:28:06.164Z,19.50
2019-02-21T12:30:36.574Z,19.00
2019-02-21T12:33:07.035Z,18.60
2019-02-21T12:35:37.454Z,18.30
2019-02-21T12:38:07.837Z,18.50
2019-02-21T12:40:38.245Z,18.40
2019-02-21T12:43:08.681Z,18.60
2019-02-21T12:45:39.085Z,18.50
2019-02-21T12:48:09.542Z,18.40
2019-02-21T12:50:44.416Z,18.20
2019-02-21T12:53:12.059Z,18.10
2019-02-21T12:55:42.454Z,18.10
2019-02-21T12:58:12.842Z,18.10
2019-02-21T13:00:43.332Z,18.10
2019-02-21T13:03:13.757Z,17.90
2019-02-21T13:05:44.693Z,18.00
2019-02-21T13:08:15.261Z,17.60
2019-02-21T13:10:45.744Z,17.40
2019-02-21T13:13:16.125Z,17.50
2019-02-21T13:15:46.673Z,17.40
2019-02-21T13:18:17.057Z,17.40
2019-02-21T13:20:47.492Z,17.50
2019-02-21T13:23:17.978Z,17.50
2019-02-21T13:25:48.354Z,17.60
2019-02-21T13:28:18.747Z,17.40
2019-02-21T13:30:49.208Z,17.80
2019-02-21T13:33:19.678Z,18.10
2019-02-21T13:35:53.011Z,18.20
2019-02-21T13:38:22.213Z,18.30
2019-02-21T13:40:52.778Z,18.30
2019-02-21T13:43:23.274Z,18.50
2019-02-21T13:45:53.644Z,18.30
2019-02-21T13:48:24.026Z,18.50
2019-02-21T13:50:54.395Z,18.80
2019-02-21T13:53:24.809Z,19.10
2019-02-21T13:55:55.283Z,19.20
2019-02-21T13:58:25.686Z,19.10
2019-02-21T14:00:56.146Z,18.90
2019-02-21T14:03:26.558Z,19.10
2019-02-21T14:06:03.666Z,18.50
2019-02-21T14:08:29.127Z,18.10
2019-02-21T14:10:59.516Z,17.80
2019-02-21T14:13:30.030Z,17.90
2019-02-21T14:16:00.418Z,17.80
2019-02-21T14:18:30.823Z,17.50
2019-02-21T14:21:01.262Z,17.20
2019-02-21T14:23:31.719Z,17.10
2019-02-21T14:26:02.138Z,16.90
2019-02-21T14:28:32.570Z,17.10
2019-02-21T14:31:02.948Z,16.80
2019-02-21T14:33:33.375Z,16.90
2019-02-21T14:36:14.773Z,17.10
2019-02-21T14:38:37.723Z,17.40
2019-02-21T14:41:08.013Z,17.40
2019-02-21T14:43:38.409Z,17.60
2019-02-21T14:46:08.784Z,17.50
2019-02-21T14:48:39.219Z,17.40
2019-02-21T14:51:09.632Z,17.20
2019-02-21T14:53:40.075Z,17.10
2019-02-21T14:56:10.481Z,16.90
2019-02-21T14:58:42.707Z,16.90
2019-02-21T15:01:13.143Z,17.00
2019-02-21T15:03:43.525Z,16.90
2019-02-21T15:06:14.035Z,16.80
2019-02-21T15:08:44.430Z,16.70
2019-02-21T15:11:14.905Z,16.80
2019-02-21T15:13:45.390Z,16.70
2019-02-21T15:16:15.792Z,16.70
2019-02-21T15:18:46.235Z,16.50
2019-02-21T15:21:16.673Z,16.40
2019-02-21T15:23:47.061Z,16.00
2019-02-21T15:26:17.470Z,15.90
2019-02-21T15:28:47.844Z,15.90
2019-02-21T15:31:18.277Z,15.90
2019-02-21T15:33:48.681Z,15.80
2019-02-21T15:36:19.069Z,15.50
2019-02-21T15:38:49.491Z,15.50
2019-02-21T15:41:19.894Z,15.40
2019-02-21T15:43:50.262Z,15.40
2019-02-21T15:46:20.685Z,15.50
2019-02-21T15:48:51.129Z,15.50
2019-02-21T15:51:21.586Z,15.10
2019-02-21T15:53:51.995Z,15.10
2019-02-21T15:56:22.399Z,15.00
2019-02-21T15:58:52.928Z,15.00
2019-02-21T16:01:23.321Z,15.00
2019-02-21T16:03:53.719Z,15.00
2019-02-21T16:06:24.110Z,14.90
2019-02-21T16:08:54.530Z,14.90
2019-02-21T16:11:24.990Z,14.80
2019-02-21T16:14:03.251Z,14.80
2019-02-21T16:16:27.625Z,14.30
2019-02-21T16:18:59.157Z,14.40
2019-02-21T16:21:29.603Z,14.50
2019-02-21T16:24:00.013Z,14.60
2019-02-21T16:26:30.426Z,14.60
2019-02-21T16:29:00.842Z,14.60
2019-02-21T16:31:31.220Z,14.50
2019-02-21T16:34:01.652Z,14.40
2019-02-21T16:36:32.153Z,14.30
2019-02-21T16:39:04.400Z,14.30
2019-02-21T16:41:36.639Z,14.30
2019-02-21T16:44:07.161Z,14.30
2019-02-21T16:46:37.904Z,14.40
2019-02-21T16:49:08.400Z,14.30
2019-02-21T16:51:38.982Z,14.20
2019-02-21T16:54:09.382Z,14.20
2019-02-21T16:56:39.885Z,14.10
2019-02-21T16:59:10.283Z,14.00
2019-02-21T17:01:40.764Z,14.00
2019-02-21T17:04:11.163Z,14.00
2019-02-21T17:06:41.570Z,13.90
2019-02-21T17:09:12.174Z,13.90
2019-02-21T17:11:42.622Z,13.70
2019-02-21T17:14:13.151Z,13.70
2019-02-21T17:16:43.561Z,13.70
2019-02-21T17:19:13.949Z,13.70
2019-02-21T17:21:44.341Z,13.60
2019-02-21T17:24:14.720Z,13.50
2019-02-21T17:26:45.103Z,13.50
2019-02-21T17:29:15.548Z,13.40
2019-02-21T17:31:45.957Z,13.30
2019-02-21T17:34:16.341Z,13.20
2019-02-21T17:36:46.734Z,13.20
2019-02-21T17:39:17.116Z,13.20
2019-02-21T17:41:47.506Z,13.10
2019-02-21T17:44:17.962Z,13.00
2019-02-21T17:46:48.606Z,12.90
2019-02-21T17:49:19.071Z,12.70
2019-02-21T17:51:49.678Z,12.50
2019-02-21T17:54:20.376Z,12.30
2019-02-21T17:56:51.088Z,12.30
2019-02-21T17:59:21.900Z,12.20
2019-02-21T18:01:52.571Z,12.20
2019-02-21T18:04:23.241Z,12.20
2019-02-21T18:06:53.989Z,12.20
2019-02-21T18:09:25.141Z,12.10
2019-02-21T18:11:55.832Z,12.10
2019-02-21T18:14:26.670Z,12.20
2019-02-21T18:16:57.609Z,12.10
2019-02-21T18:19:28.869Z,12.20
2019-02-21T18:21:59.651Z,12.30
2019-02-21T18:24:30.343Z,12.30
2019-02-21T18:27:01.008Z,12.30
2019-02-21T18:29:31.765Z,12.30
2019-02-21T18:32:02.402Z,12.30
2019-02-21T18:34:33.171Z,12.30
2019-02-21T18:37:03.792Z,12.30
2019-02-21T18:39:35.142Z,12.30
2019-02-21T18:42:05.924Z,12.30
2019-02-21T18:44:36.719Z,12.30
2019-02-21T18:47:07.472Z,12.30
2019-02-21T18:49:38.159Z,12.30
2019-02-21T18:52:08.800Z,12.20
2019-02-21T18:54:39.491Z,12.20
2019-02-21T18:57:12.196Z,12.30
2019-02-21T18:59:42.446Z,12.20
2019-02-21T19:02:13.130Z,12.20
2019-02-21T19:04:43.843Z,12.20
2019-02-21T19:07:14.522Z,12.20
2019-02-21T19:09:46.088Z,12.10
2019-02-21T19:12:16.783Z,12.10
2019-02-21T19:14:47.481Z,12.10
2019-02-21T19:17:18.270Z,12.20
2019-02-21T19:19:48.995Z,12.20
2019-02-21T19:22:19.893Z,12.20
2019-02-21T19:24:50.618Z,12.20
2019-02-21T19:27:21.424Z,12.20
2019-02-21T19:29:52.053Z,12.20
2019-02-21T19:32:22.830Z,12.20
2019-02-21T19:34:53.515Z,12.10
2019-02-21T19:37:24.424Z,12.00
2019-02-21T19:39:55.349Z,12.00
2019-02-21T19:42:26.081Z,12.00
2019-02-21T19:44:56.922Z,12.10
2019-02-21T19:47:27.533Z,12.00
2019-02-21T19:49:58.376Z,11.90
2019-02-21T19:52:29.073Z,11.90
2019-02-21T19:54:59.734Z,11.80
2019-02-21T19:57:30.475Z,11.90
2019-02-21T20:00:01.076Z,11.90
2019-02-21T20:02:32.026Z,11.90
2019-02-21T20:05:02.972Z,11.90
2019-02-21T20:07:33.583Z,12.00
2019-02-21T20:10:04.432Z,11.90
2019-02-21T20:12:35.347Z,11.90
2019-02-21T20:15:07.033Z,11.90
2019-02-21T20:17:37.603Z,12.00
2019-02-21T20:20:09.539Z,12.00
2019-02-21T20:22:40.554Z,12.00
2019-02-21T20:25:11.411Z,12.10
2019-02-21T20:27:42.073Z,12.00
2019-02-21T20:30:14.337Z,12.00
2019-02-21T20:32:45.004Z,12.00
2019-02-21T20:35:16.098Z,12.10
2019-02-21T20:37:46.695Z,12.00
2019-02-21T20:40:17.315Z,12.10
2019-02-21T20:42:47.909Z,12.10
2019-02-21T20:45:18.561Z,12.10
2019-02-21T20:47:49.178Z,12.00
2019-02-21T20:50:19.823Z,12.00
2019-02-21T20:52:50.486Z,11.90
2019-02-21T20:55:21.155Z,11.90
2019-02-21T20:57:51.761Z,11.90
2019-02-21T21:00:22.659Z,11.90
2019-02-21T21:02:53.258Z,11.80
2019-02-21T21:05:23.875Z,11.80
2019-02-21T21:07:54.466Z,11.80
2019-02-21T21:10:25.050Z,11.90
2019-02-21T21:12:55.647Z,11.90
2019-02-21T21:15:26.358Z,11.80
2019-02-21T21:17:56.935Z,11.80
2019-02-21T21:20:27.554Z,11.80
2019-02-21T21:22:58.216Z,11.80
2019-02-21T21:25:28.913Z,11.80
2019-02-21T21:27:59.479Z,11.70
2019-02-21T21:30:30.167Z,11.70
2019-02-21T21:33:00.762Z,11.70
2019-02-21T21:35:31.654Z,11.80
2019-02-21T21:38:02.202Z,11.70
2019-02-21T21:40:32.905Z,11.60
2019-02-21T21:43:03.572Z,11.60
2019-02-21T21:45:34.239Z,11.60
2019-02-21T21:48:04.928Z,11.60
2019-02-21T21:50:35.935Z,11.60
2019-02-21T21:53:06.684Z,11.60
2019-02-21T21:55:37.290Z,11.60
2019-02-21T21:58:07.910Z,11.60
2019-02-21T22:00:38.511Z,11.60
2019-02-21T22:03:09.067Z,11.60
2019-02-21T22:05:39.650Z,11.60
2019-02-21T22:08:10.355Z,11.60
2019-02-21T22:10:41.882Z,11.60
2019-02-21T22:13:12.558Z,11.50
2019-02-21T22:15:43.089Z,11.50
2019-02-21T22:18:13.772Z,11.40
2019-02-21T22:20:44.356Z,11.40
2019-02-21T22:23:15.009Z,11.40
2019-02-21T22:25:45.608Z,11.40
2019-02-21T22:28:16.284Z,11.40
2019-02-21T22:30:46.977Z,11.40
2019-02-21T22:33:17.598Z,11.40
2019-02-21T22:35:48.248Z,11.40
2019-02-21T22:38:18.858Z,11.40
2019-02-21T22:40:49.479Z,11.40
2019-02-21T22:43:20.058Z,11.30
2019-02-21T22:45:50.718Z,11.40
2019-02-21T22:48:21.438Z,11.40
2019-02-21T22:50:52.117Z,11.40
2019-02-21T22:53:22.812Z,11.40
2019-02-21T22:55:53.366Z,11.50
2019-02-21T22:58:23.961Z,11.50
2019-02-21T23:01:20.873Z,11.50
2019-02-21T23:03:57.161Z,11.50
2019-02-21T23:06:45.392Z,11.50
2019-02-21T23:09:27.033Z,11.50
2019-02-21T23:11:51.790Z,11.50
2019-02-21T23:14:22.289Z,11.40
2019-02-21T23:16:52.774Z,11.40
2019-02-21T23:19:24.205Z,11.40
2019-02-21T23:21:54.839Z,11.50
2019-02-21T23:24:25.231Z,11.40
2019-02-21T23:26:55.605Z,11.50
2019-02-21T23:29:25.998Z,11.50
2019-02-21T23:31:56.381Z,11.50
2019-02-21T23:34:36.025Z,11.50
2019-02-21T23:37:06.402Z,11.50
2019-02-21T23:39:38.571Z,11.40
2019-02-21T23:42:08.919Z,11.40
2019-02-21T23:44:39.297Z,11.30
2019-02-21T23:47:09.675Z,11.40
2019-02-21T23:49:40.038Z,11.40
2019-02-21T23:52:10.438Z,11.40
2019-02-21T23:54:40.827Z,11.40
2019-02-21T23:57:11.214Z,11.30
2019-02-21T23:59:41.574Z,11.30
